createdAt,value
2017-06-24T00:00:35.513Z,83.90
2017-06-24T00:03:02.053Z,83.70
2017-06-24T00:05:28.606Z,83.90
2017-06-24T00:07:55.112Z,83.90
2017-06-24T00:10:21.550Z,83.90
2017-06-24T00:12:47.979Z,83.90
2017-06-24T00:15:14.514Z,83.80
2017-06-24T00:17:40.940Z,83.60
2017-06-24T00:20:07.484Z,83.60
2017-06-24T00:22:33.936Z,83.60
2017-06-24T00:25:00.457Z,83.50
2017-06-24T00:27:26.884Z,83.60
2017-06-24T00:29:53.434Z,83.60
2017-06-24T00:32:19.858Z,83.80
2017-06-24T00:34:46.366Z,83.80
2017-06-24T00:37:13.041Z,83.40
2017-06-24T00:39:39.518Z,83.70
2017-06-24T00:42:06.030Z,83.70
2017-06-24T00:44:33.351Z,83.60
2017-06-24T00:46:59.850Z,83.70
2017-06-24T00:49:26.359Z,83.70
2017-06-24T00:51:52.867Z,83.60
2017-06-24T00:54:19.321Z,83.50
2017-06-24T00:56:45.761Z,83.60
2017-06-24T00:59:12.357Z,83.60
2017-06-24T01:01:38.853Z,83.80
2017-06-24T01:04:05.290Z,83.90
2017-06-24T01:06:31.986Z,83.80
2017-06-24T01:08:58.603Z,83.70
2017-06-24T01:11:25.191Z,83.80
2017-06-24T01:13:51.954Z,83.80
2017-06-24T01:16:18.425Z,83.80
2017-06-24T01:18:44.975Z,83.90
2017-06-24T01:21:12.402Z,83.90
2017-06-24T01:23:39.177Z,84.00
2017-06-24T01:26:05.604Z,84.00
2017-06-24T01:28:32.196Z,84.10
2017-06-24T01:30:58.734Z,84.10
2017-06-24T01:33:25.342Z,84.20
2017-06-24T01:35:51.986Z,84.10
2017-06-24T01:38:19.250Z,84.20
2017-06-24T01:40:45.715Z,84.10
2017-06-24T01:43:12.226Z,84.10
2017-06-24T01:45:39.572Z,84.30
2017-06-24T01:48:06.218Z,84.70
2017-06-24T01:50:32.907Z,84.80
2017-06-24T01:52:59.377Z,84.90
2017-06-24T01:55:25.918Z,84.90
2017-06-24T01:57:52.385Z,84.80
2017-06-24T02:00:18.875Z,84.90
2017-06-24T02:02:45.573Z,84.90
2017-06-24T02:05:12.185Z,85.70
2017-06-24T02:07:38.737Z,85.00
2017-06-24T02:10:05.202Z,85.20
2017-06-24T02:12:31.994Z,85.10
2017-06-24T02:14:58.566Z,85.00
2017-06-24T02:17:25.527Z,84.90
2017-06-24T02:19:51.998Z,84.90
2017-06-24T02:22:18.476Z,84.90
2017-06-24T02:24:45.012Z,85.00
2017-06-24T02:27:11.500Z,85.00
2017-06-24T02:29:37.971Z,85.00
2017-06-24T02:32:04.436Z,85.00
2017-06-24T02:34:31.172Z,85.00
2017-06-24T02:36:57.646Z,85.10
2017-06-24T02:39:24.101Z,85.20
2017-06-24T02:41:50.741Z,85.10
2017-06-24T02:44:17.203Z,85.10
2017-06-24T02:46:43.749Z,85.00
2017-06-24T02:49:10.443Z,85.10
2017-06-24T02:51:37.237Z,85.10
2017-06-24T02:54:03.686Z,85.20
2017-06-24T02:56:30.219Z,85.30
2017-06-24T02:58:56.707Z,85.50
2017-06-24T03:01:23.380Z,85.70
2017-06-24T03:03:49.897Z,85.80
2017-06-24T03:06:16.333Z,85.80
2017-06-24T03:08:42.820Z,86.00
2017-06-24T03:11:09.306Z,86.00
2017-06-24T03:13:35.925Z,86.00
2017-06-24T03:16:02.708Z,86.20
2017-06-24T03:18:29.170Z,85.80
2017-06-24T03:20:55.606Z,85.70
2017-06-24T03:23:22.324Z,85.80
2017-06-24T03:25:49.005Z,85.90
2017-06-24T03:28:15.518Z,85.70
2017-06-24T03:30:42.040Z,85.30
2017-06-24T03:33:08.513Z,85.20
2017-06-24T03:35:34.955Z,85.20
2017-06-24T03:38:01.432Z,85.10
2017-06-24T03:40:28.053Z,84.80
2017-06-24T03:42:54.521Z,84.30
2017-06-24T03:45:21.067Z,84.10
2017-06-24T03:47:47.767Z,84.10
2017-06-24T03:50:15.243Z,83.80
2017-06-24T03:52:42.675Z,83.60
2017-06-24T03:55:09.239Z,83.30
2017-06-24T03:57:35.930Z,83.40
2017-06-24T04:00:03.118Z,82.90
2017-06-24T04:02:29.674Z,81.50
2017-06-24T04:04:56.140Z,79.90
2017-06-24T04:07:23.624Z,78.20
2017-06-24T04:09:50.247Z,75.80
2017-06-24T04:12:16.772Z,73.30
2017-06-24T04:14:43.243Z,70.60
2017-06-24T04:17:09.941Z,68.10
2017-06-24T04:19:36.365Z,66.00
2017-06-24T04:22:02.920Z,63.70
2017-06-24T04:24:29.601Z,60.10
2017-06-24T04:26:56.133Z,58.30
2017-06-24T04:29:22.709Z,57.80
2017-06-24T04:31:49.175Z,58.90
2017-06-24T04:34:15.915Z,60.50
2017-06-24T04:36:42.431Z,62.10
2017-06-24T04:39:08.889Z,61.90
2017-06-24T04:41:35.519Z,60.80
2017-06-24T04:44:02.000Z,60.30
2017-06-24T04:46:28.457Z,58.80
2017-06-24T04:48:54.968Z,58.40
2017-06-24T04:51:21.416Z,57.70
2017-06-24T04:53:47.951Z,56.60
2017-06-24T04:56:14.784Z,55.00
2017-06-24T04:58:42.278Z,53.40
2017-06-24T05:01:08.890Z,51.80
2017-06-24T05:03:36.070Z,49.70
2017-06-24T05:06:02.668Z,49.30
2017-06-24T05:08:29.230Z,48.60
2017-06-24T05:10:55.660Z,47.20
2017-06-24T05:13:22.484Z,46.10
2017-06-24T05:15:48.963Z,45.10
2017-06-24T05:18:15.437Z,43.70
2017-06-24T05:20:42.129Z,42.60
2017-06-24T05:23:09.870Z,41.40
2017-06-24T05:25:36.349Z,40.40
2017-06-24T05:28:03.177Z,40.00
2017-06-24T05:30:29.685Z,39.50
2017-06-24T05:32:56.169Z,38.70
2017-06-24T05:35:22.658Z,38.00
2017-06-24T05:37:49.138Z,37.90
2017-06-24T05:40:15.643Z,38.00
2017-06-24T05:42:43.126Z,37.20
2017-06-24T05:45:09.837Z,36.70
2017-06-24T05:47:36.250Z,36.10
2017-06-24T05:50:03.817Z,35.10
2017-06-24T05:52:30.373Z,34.40
2017-06-24T05:54:56.812Z,33.70
2017-06-24T05:57:23.437Z,33.90
2017-06-24T05:59:49.890Z,32.80
2017-06-24T06:02:16.501Z,33.10
2017-06-24T06:04:42.982Z,32.00
2017-06-24T06:07:09.790Z,31.70
2017-06-24T06:09:36.262Z,31.80
2017-06-24T06:12:02.792Z,31.30
2017-06-24T06:14:29.377Z,30.40
2017-06-24T06:16:56.039Z,29.50
2017-06-24T06:19:22.507Z,29.00
2017-06-24T06:21:48.979Z,28.10
2017-06-24T06:24:15.401Z,27.90
2017-06-24T06:26:41.895Z,27.60
2017-06-24T06:29:08.321Z,27.20
2017-06-24T06:31:36.071Z,26.20
2017-06-24T06:34:02.892Z,25.20
2017-06-24T06:36:29.323Z,24.80
2017-06-24T06:38:55.858Z,24.60
2017-06-24T06:41:22.319Z,24.40
2017-06-24T06:43:48.817Z,24.20
2017-06-24T06:46:15.318Z,24.00
2017-06-24T06:48:41.858Z,23.90
2017-06-24T06:51:08.421Z,23.70
2017-06-24T06:53:34.951Z,23.80
2017-06-24T06:56:01.546Z,23.50
2017-06-24T06:58:28.040Z,23.60
2017-06-24T07:00:54.552Z,23.20
2017-06-24T07:03:21.992Z,22.90
2017-06-24T07:05:48.672Z,22.80
2017-06-24T07:08:15.086Z,23.00
2017-06-24T07:10:41.630Z,22.90
2017-06-24T07:13:08.217Z,23.00
2017-06-24T07:15:34.666Z,22.90
2017-06-24T07:18:01.522Z,23.10
2017-06-24T07:20:28.001Z,23.40
2017-06-24T07:22:54.443Z,23.50
2017-06-24T07:25:20.958Z,23.50
2017-06-24T07:27:47.491Z,23.60
2017-06-24T07:30:14.051Z,22.80
2017-06-24T07:32:40.510Z,22.60
2017-06-24T07:35:07.153Z,22.60
2017-06-24T07:37:33.764Z,22.70
2017-06-24T07:40:00.284Z,22.60
2017-06-24T07:42:26.895Z,22.70
2017-06-24T07:44:53.325Z,22.80
2017-06-24T07:47:20.186Z,23.70
2017-06-24T07:49:47.796Z,24.20
2017-06-24T07:52:14.218Z,24.50
2017-06-24T07:54:40.686Z,24.80
2017-06-24T07:57:07.529Z,24.90
2017-06-24T07:59:34.014Z,25.00
2017-06-24T08:02:00.452Z,25.00
2017-06-24T08:04:26.979Z,25.40
2017-06-24T08:06:53.511Z,25.00
2017-06-24T08:09:20.190Z,25.40
2017-06-24T08:11:46.627Z,25.30
2017-06-24T08:14:14.115Z,25.90
2017-06-24T08:16:40.677Z,26.50
2017-06-24T08:19:07.093Z,26.40
2017-06-24T08:21:33.577Z,27.20
2017-06-24T08:24:00.055Z,27.50
2017-06-24T08:26:26.585Z,28.10
2017-06-24T08:28:53.067Z,28.90
2017-06-24T08:31:19.538Z,29.60
2017-06-24T08:33:46.058Z,30.50
2017-06-24T08:36:12.495Z,32.00
2017-06-24T08:38:38.910Z,32.90
2017-06-24T08:41:05.364Z,34.00
2017-06-24T08:43:31.845Z,34.30
2017-06-24T08:45:58.288Z,34.60
2017-06-24T08:48:24.695Z,35.00
2017-06-24T08:50:51.383Z,35.00
2017-06-24T08:53:17.845Z,35.30
2017-06-24T08:55:44.253Z,35.60
2017-06-24T08:58:10.725Z,35.30
2017-06-24T09:00:37.170Z,35.70
2017-06-24T09:03:03.636Z,36.10
2017-06-24T09:05:30.135Z,35.80
2017-06-24T09:07:56.811Z,35.80
2017-06-24T09:10:23.280Z,36.40
2017-06-24T09:12:49.887Z,37.10
2017-06-24T09:15:16.358Z,37.20
2017-06-24T09:17:43.118Z,37.50
2017-06-24T09:20:09.577Z,37.20
2017-06-24T09:22:36.026Z,37.30
2017-06-24T09:25:02.502Z,37.50
2017-06-24T09:27:28.931Z,38.40
2017-06-24T09:29:55.454Z,39.20
2017-06-24T09:32:21.924Z,38.70
2017-06-24T09:34:48.382Z,38.00
2017-06-24T09:37:15.346Z,37.90
2017-06-24T09:39:41.806Z,38.60
2017-06-24T09:42:08.298Z,38.70
2017-06-24T09:44:34.743Z,38.70
2017-06-24T09:47:01.175Z,38.00
2017-06-24T09:49:29.003Z,38.20
2017-06-24T09:51:55.709Z,37.20
2017-06-24T09:54:22.381Z,36.90
2017-06-24T09:56:48.866Z,36.70
2017-06-24T09:59:15.598Z,36.40
2017-06-24T10:01:42.121Z,37.00
2017-06-24T10:04:08.581Z,37.40
2017-06-24T10:06:35.405Z,36.80
2017-06-24T10:09:01.897Z,37.10
2017-06-24T10:11:28.399Z,37.60
2017-06-24T10:13:54.836Z,37.70
2017-06-24T10:16:21.356Z,37.40
2017-06-24T10:18:47.890Z,38.10
2017-06-24T10:21:14.598Z,38.50
2017-06-24T10:23:41.236Z,37.60
2017-06-24T10:26:07.744Z,36.40
2017-06-24T10:28:34.246Z,36.60
2017-06-24T10:31:01.813Z,36.30
2017-06-24T10:33:28.252Z,36.30
2017-06-24T10:35:54.716Z,36.30
2017-06-24T10:38:21.305Z,36.30
2017-06-24T10:40:47.738Z,35.60
2017-06-24T10:43:14.177Z,35.90
2017-06-24T10:45:40.885Z,35.90
2017-06-24T10:48:07.565Z,35.90
2017-06-24T10:50:34.035Z,35.10
2017-06-24T10:53:00.475Z,36.50
2017-06-24T10:55:27.351Z,37.40
2017-06-24T10:57:53.845Z,37.40
2017-06-24T11:00:20.391Z,36.10
2017-06-24T11:02:46.906Z,35.70
2017-06-24T11:05:13.445Z,35.10
2017-06-24T11:07:39.977Z,34.60
2017-06-24T11:10:07.441Z,35.10
2017-06-24T11:12:34.306Z,35.70
2017-06-24T11:15:00.858Z,35.80
2017-06-24T11:17:27.446Z,36.00
2017-06-24T11:19:53.987Z,36.00
2017-06-24T11:22:20.858Z,36.80
2017-06-24T11:24:48.479Z,37.20
2017-06-24T11:27:15.262Z,37.00
2017-06-24T11:29:41.820Z,36.50
2017-06-24T11:32:08.416Z,35.90
2017-06-24T11:34:35.195Z,35.90
2017-06-24T11:37:02.611Z,35.60
2017-06-24T11:39:29.097Z,35.90
2017-06-24T11:41:55.878Z,35.30
2017-06-24T11:44:22.369Z,35.40
2017-06-24T11:46:48.887Z,34.30
2017-06-24T11:49:15.541Z,33.80
2017-06-24T11:51:42.014Z,34.60
2017-06-24T11:54:09.367Z,35.40
2017-06-24T11:56:35.876Z,34.90
2017-06-24T11:59:02.403Z,35.80
2017-06-24T12:01:29.410Z,36.00
2017-06-24T12:03:55.894Z,35.30
2017-06-24T12:06:22.344Z,34.40
2017-06-24T12:08:48.813Z,34.30
2017-06-24T12:11:15.548Z,33.50
2017-06-24T12:13:42.118Z,33.90
2017-06-24T12:16:09.168Z,33.80
2017-06-24T12:18:35.620Z,35.00
2017-06-24T12:21:02.190Z,34.80
2017-06-24T12:23:28.742Z,34.90
2017-06-24T12:25:55.210Z,35.70
2017-06-24T12:28:22.540Z,35.20
2017-06-24T12:30:48.988Z,34.30
2017-06-24T12:33:15.483Z,35.10
2017-06-24T12:35:42.008Z,35.10
2017-06-24T12:38:08.449Z,35.90
2017-06-24T12:40:35.509Z,35.40
2017-06-24T12:43:02.015Z,34.80
2017-06-24T12:45:29.182Z,34.40
2017-06-24T12:47:56.033Z,34.60
2017-06-24T12:50:22.497Z,34.60
2017-06-24T12:52:49.178Z,35.10
2017-06-24T12:55:16.548Z,35.60
2017-06-24T12:57:43.154Z,35.10
2017-06-24T13:00:09.676Z,34.90
2017-06-24T13:02:36.107Z,34.90
2017-06-24T13:05:02.575Z,34.30
2017-06-24T13:07:29.090Z,34.40
2017-06-24T13:09:55.528Z,34.10
2017-06-24T13:12:22.025Z,34.50
2017-06-24T13:14:48.756Z,34.30
2017-06-24T13:17:15.348Z,34.00
2017-06-24T13:19:41.922Z,34.30
2017-06-24T13:22:08.378Z,34.70
2017-06-24T13:24:35.295Z,34.40
2017-06-24T13:27:01.822Z,34.40
2017-06-24T13:29:28.357Z,35.40
2017-06-24T13:31:55.086Z,34.30
2017-06-24T13:34:21.659Z,33.70
2017-06-24T13:36:48.199Z,34.20
2017-06-24T13:39:14.659Z,34.20
2017-06-24T13:41:41.119Z,34.20
2017-06-24T13:44:07.575Z,34.00
2017-06-24T13:46:34.057Z,34.10
2017-06-24T13:49:00.531Z,33.90
2017-06-24T13:51:27.005Z,34.40
2017-06-24T13:53:53.514Z,34.30
2017-06-24T13:56:19.962Z,33.50
2017-06-24T13:58:46.400Z,33.70
2017-06-24T14:01:12.832Z,34.10
2017-06-24T14:03:39.316Z,33.90
2017-06-24T14:06:05.753Z,34.30
2017-06-24T14:08:32.910Z,34.10
2017-06-24T14:10:59.642Z,34.10
2017-06-24T14:13:26.140Z,33.90
2017-06-24T14:15:52.672Z,33.60
2017-06-24T14:18:19.132Z,33.50
2017-06-24T14:20:45.783Z,33.50
2017-06-24T14:23:27.296Z,34.30
2017-06-24T14:25:53.726Z,34.10
2017-06-24T14:28:20.290Z,34.80
2017-06-24T14:30:48.090Z,35.10
2017-06-24T14:33:14.593Z,34.10
2017-06-24T14:35:41.101Z,34.40
2017-06-24T14:38:07.627Z,34.00
2017-06-24T14:40:34.341Z,33.90
2017-06-24T14:43:00.775Z,33.90
2017-06-24T14:45:27.342Z,33.80
2017-06-24T14:47:53.810Z,33.20
2017-06-24T14:50:20.418Z,32.80
2017-06-24T14:52:48.155Z,31.70
2017-06-24T14:55:14.605Z,31.60
2017-06-24T14:57:41.104Z,31.90
2017-06-24T15:00:07.701Z,32.30
2017-06-24T15:02:34.312Z,32.30
2017-06-24T15:05:00.792Z,32.50
2017-06-24T15:07:27.271Z,32.60
2017-06-24T15:09:53.994Z,32.60
2017-06-24T15:12:20.458Z,32.90
2017-06-24T15:14:47.084Z,33.90
2017-06-24T15:17:13.576Z,34.10
2017-06-24T15:19:41.048Z,34.20
2017-06-24T15:22:22.420Z,33.40
2017-06-24T15:24:48.879Z,32.40
2017-06-24T15:27:15.391Z,32.20
2017-06-24T15:29:44.718Z,33.10
2017-06-24T15:32:11.380Z,32.90
2017-06-24T15:34:39.489Z,32.60
2017-06-24T15:37:06.143Z,32.30
2017-06-24T15:39:32.937Z,32.70
2017-06-24T15:41:59.457Z,32.40
2017-06-24T15:44:25.860Z,32.20
2017-06-24T15:46:52.280Z,31.80
2017-06-24T15:49:19.810Z,31.70
2017-06-24T15:51:46.283Z,31.80
2017-06-24T15:54:12.757Z,31.50
2017-06-24T15:56:39.583Z,31.50
2017-06-24T15:59:06.076Z,30.70
2017-06-24T16:01:32.505Z,30.40
2017-06-24T16:03:58.976Z,29.70
2017-06-24T16:06:25.392Z,29.70
2017-06-24T16:08:51.840Z,29.90
2017-06-24T16:11:18.268Z,30.10
2017-06-24T16:13:44.733Z,30.60
2017-06-24T16:16:11.154Z,31.10
2017-06-24T16:18:37.580Z,31.70
2017-06-24T16:21:04.017Z,31.90
2017-06-24T16:23:30.489Z,31.10
2017-06-24T16:25:56.955Z,31.30
2017-06-24T16:28:23.443Z,30.80
2017-06-24T16:30:49.907Z,31.00
2017-06-24T16:33:16.358Z,31.10
2017-06-24T16:35:42.795Z,30.70
2017-06-24T16:38:09.257Z,30.60
2017-06-24T16:40:35.898Z,30.60
2017-06-24T16:43:02.321Z,30.90
2017-06-24T16:45:28.781Z,31.00
2017-06-24T16:47:55.211Z,31.50
2017-06-24T16:50:21.654Z,31.20
2017-06-24T16:52:48.126Z,31.20
2017-06-24T16:55:14.578Z,31.00
2017-06-24T16:57:41.042Z,30.90
2017-06-24T17:00:07.524Z,30.90
2017-06-24T17:02:33.994Z,31.20
2017-06-24T17:05:00.443Z,31.70
2017-06-24T17:07:26.891Z,32.10
2017-06-24T17:09:53.332Z,34.10
2017-06-24T17:12:19.815Z,37.00
2017-06-24T17:14:46.283Z,38.50
2017-06-24T17:17:12.758Z,39.70
2017-06-24T17:19:39.642Z,40.60
2017-06-24T17:22:06.121Z,41.00
2017-06-24T17:24:32.575Z,41.20
2017-06-24T17:26:59.393Z,41.80
2017-06-24T17:29:25.855Z,42.50
2017-06-24T17:31:52.387Z,42.60
2017-06-24T17:34:18.825Z,43.00
2017-06-24T17:36:45.297Z,43.60
2017-06-24T17:39:11.726Z,43.40
2017-06-24T17:41:38.172Z,43.90
2017-06-24T17:44:04.620Z,44.40
2017-06-24T17:46:31.065Z,44.10
2017-06-24T17:48:57.548Z,44.10
2017-06-24T17:51:23.980Z,43.80
2017-06-24T17:53:50.460Z,43.80
2017-06-24T17:56:17.176Z,43.60
2017-06-24T17:58:43.666Z,43.60
2017-06-24T18:01:10.142Z,43.60
2017-06-24T18:03:36.639Z,43.80
2017-06-24T18:06:03.106Z,44.20
2017-06-24T18:08:29.548Z,44.40
2017-06-24T18:10:56.035Z,44.70
2017-06-24T18:13:22.515Z,44.30
2017-06-24T18:15:48.964Z,44.20
2017-06-24T18:18:15.441Z,44.30
2017-06-24T18:20:41.905Z,44.80
2017-06-24T18:23:08.372Z,45.30
2017-06-24T18:25:34.873Z,45.40
2017-06-24T18:28:01.353Z,45.50
2017-06-24T18:30:27.778Z,45.70
2017-06-24T18:32:54.537Z,46.10
2017-06-24T18:35:20.990Z,46.30
2017-06-24T18:37:47.403Z,46.70
2017-06-24T18:40:13.925Z,46.40
2017-06-24T18:42:40.483Z,46.70
2017-06-24T18:45:06.916Z,47.20
2017-06-24T18:47:33.396Z,47.30
2017-06-24T18:49:59.846Z,47.50
2017-06-24T18:52:26.316Z,47.40
2017-06-24T18:54:52.764Z,47.40
2017-06-24T18:57:19.270Z,47.70
2017-06-24T18:59:45.766Z,48.00
2017-06-24T19:02:12.270Z,48.30
2017-06-24T19:04:38.727Z,49.30
2017-06-24T19:07:05.197Z,49.90
2017-06-24T19:09:31.652Z,50.40
2017-06-24T19:11:58.098Z,50.80
2017-06-24T19:14:24.579Z,51.30
2017-06-24T19:16:51.009Z,52.20
2017-06-24T19:19:17.487Z,53.10
2017-06-24T19:21:43.947Z,53.60
2017-06-24T19:24:10.381Z,53.40
2017-06-24T19:26:36.853Z,54.10
2017-06-24T19:29:03.324Z,54.40
2017-06-24T19:31:29.813Z,54.50
2017-06-24T19:33:56.268Z,54.60
2017-06-24T19:36:22.723Z,55.00
2017-06-24T19:38:49.214Z,55.40
2017-06-24T19:41:15.734Z,55.80
2017-06-24T19:43:42.192Z,56.40
2017-06-24T19:46:08.638Z,56.80
2017-06-24T19:48:35.110Z,56.80
2017-06-24T19:51:01.592Z,57.30
2017-06-24T19:53:28.227Z,57.30
2017-06-24T19:55:54.687Z,57.20
2017-06-24T19:58:21.135Z,57.50
2017-06-24T20:00:47.563Z,57.90
2017-06-24T20:03:14.021Z,58.20
2017-06-24T20:05:40.486Z,58.50
2017-06-24T20:08:07.002Z,59.00
2017-06-24T20:10:33.505Z,59.40
2017-06-24T20:13:00.001Z,59.80
2017-06-24T20:15:26.453Z,60.20
2017-06-24T20:17:52.903Z,60.60
2017-06-24T20:20:19.387Z,61.10
2017-06-24T20:22:45.799Z,61.30
2017-06-24T20:25:12.253Z,61.70
2017-06-24T20:27:38.732Z,62.10
2017-06-24T20:30:05.458Z,62.30
2017-06-24T20:32:31.960Z,62.80
2017-06-24T20:34:58.416Z,63.10
2017-06-24T20:37:24.812Z,63.60
2017-06-24T20:39:51.258Z,63.80
2017-06-24T20:42:17.766Z,64.10
2017-06-24T20:44:44.206Z,64.50
2017-06-24T20:47:12.240Z,64.70
2017-06-24T20:49:38.677Z,65.00
2017-06-24T20:52:05.109Z,65.40
2017-06-24T20:54:31.557Z,65.60
2017-06-24T20:57:39.435Z,65.90
2017-06-24T21:00:06.063Z,66.20
2017-06-24T21:02:32.930Z,66.50
2017-06-24T21:04:59.399Z,66.70
2017-06-24T21:07:25.947Z,66.90
2017-06-24T21:09:52.402Z,66.90
2017-06-24T21:12:18.959Z,67.20
2017-06-24T21:14:45.516Z,67.10
2017-06-24T21:17:11.993Z,67.40
2017-06-24T21:19:38.449Z,67.70
2017-06-24T21:22:04.866Z,67.80
2017-06-24T21:24:32.044Z,68.40
2017-06-24T21:26:59.218Z,68.50
2017-06-24T21:29:26.498Z,68.70
2017-06-24T21:31:53.678Z,68.70
2017-06-24T21:34:20.848Z,68.70
2017-06-24T21:36:47.368Z,69.00
2017-06-24T21:39:13.841Z,68.90
2017-06-24T21:41:40.289Z,69.10
2017-06-24T21:44:06.724Z,69.20
2017-06-24T21:46:33.438Z,69.30
2017-06-24T21:48:59.907Z,69.20
2017-06-24T21:51:26.764Z,69.40
2017-06-24T21:53:53.419Z,69.60
2017-06-24T21:56:19.845Z,69.60
2017-06-24T21:58:46.331Z,69.70
2017-06-24T22:01:12.807Z,69.80
2017-06-24T22:03:39.351Z,69.90
2017-06-24T22:06:05.815Z,70.10
2017-06-24T22:08:32.404Z,70.10
2017-06-24T22:10:59.010Z,70.10
2017-06-24T22:13:26.219Z,70.40
2017-06-24T22:15:52.666Z,70.30
2017-06-24T22:18:19.208Z,70.50
2017-06-24T22:20:45.768Z,70.60
2017-06-24T22:23:12.326Z,70.80
2017-06-24T22:25:38.765Z,70.80
2017-06-24T22:28:05.832Z,70.50
2017-06-24T22:30:33.060Z,71.00
2017-06-24T22:32:59.492Z,71.00
2017-06-24T22:35:25.952Z,70.90
2017-06-24T22:37:52.414Z,70.80
2017-06-24T22:40:18.985Z,71.00
2017-06-24T22:42:45.429Z,70.80
2017-06-24T22:45:11.909Z,70.90
2017-06-24T22:47:38.378Z,71.00
2017-06-24T22:50:05.460Z,71.10
2017-06-24T22:52:31.891Z,71.10
2017-06-24T22:54:58.405Z,71.30
2017-06-24T22:57:24.963Z,71.50
2017-06-24T22:59:51.395Z,71.50
2017-06-24T23:02:17.815Z,71.30
2017-06-24T23:04:44.259Z,71.60
2017-06-24T23:07:10.693Z,71.70
2017-06-24T23:09:37.123Z,71.60
2017-06-24T23:12:04.289Z,72.10
2017-06-24T23:14:30.772Z,72.00
2017-06-24T23:16:57.248Z,72.20
2017-06-24T23:19:23.789Z,72.20
2017-06-24T23:21:50.806Z,72.20
2017-06-24T23:24:17.230Z,72.20
2017-06-24T23:26:43.654Z,72.30
2017-06-24T23:29:10.940Z,72.60
2017-06-24T23:31:38.317Z,72.60
2017-06-24T23:34:04.874Z,72.60
2017-06-24T23:36:31.336Z,72.70
2017-06-24T23:38:57.739Z,72.20
2017-06-24T23:41:24.183Z,72.80
2017-06-24T23:43:50.583Z,72.80
2017-06-24T23:46:17.772Z,73.00
2017-06-24T23:48:44.229Z,72.90
2017-06-24T23:51:10.630Z,73.30
2017-06-24T23:53:37.097Z,73.50
2017-06-24T23:56:03.529Z,73.70
2017-06-24T23:58:29.973Z,73.80
